createdAt,value
2016-06-21T00:00:12.117Z,972.05
2016-06-21T00:01:12.115Z,972.03
2016-06-21T00:02:12.110Z,972.08
2016-06-21T00:03:12.116Z,972.07
2016-06-21T00:04:12.114Z,972.11
2016-06-21T00:05:12.122Z,972.09
2016-06-21T00:06:12.115Z,972.01
2016-06-21T00:07:12.120Z,972.02
2016-06-21T00:08:12.113Z,972.02
2016-06-21T00:09:12.120Z,972.09
2016-06-21T00:10:12.117Z,972.09
2016-06-21T00:11:12.122Z,972.13
2016-06-21T00:12:12.117Z,972.12
2016-06-21T00:13:12.119Z,972.19
2016-06-21T00:14:12.124Z,972.15
2016-06-21T00:15:12.122Z,972.2
2016-06-21T00:16:12.122Z,972.19
2016-06-21T00:17:12.172Z,972.2
2016-06-21T00:18:12.122Z,972.16
2016-06-21T00:19:12.119Z,972.14
2016-06-21T00:20:12.127Z,972.13
2016-06-21T00:21:12.124Z,972.17
2016-06-21T00:22:12.128Z,972.19
2016-06-21T00:23:12.129Z,972.21
2016-06-21T00:24:12.124Z,972.19
2016-06-21T00:25:12.130Z,972.23
2016-06-21T00:26:12.126Z,972.21
2016-06-21T00:27:12.126Z,972.21
2016-06-21T00:28:12.128Z,972.24
2016-06-21T00:29:12.137Z,972.26
2016-06-21T00:30:12.123Z,972.25
2016-06-21T00:31:12.130Z,972.25
2016-06-21T00:32:12.138Z,972.28
2016-06-21T00:33:12.141Z,972.23
2016-06-21T00:34:12.144Z,972.28
2016-06-21T00:35:12.130Z,972.27
2016-06-21T00:36:12.128Z,972.28
2016-06-21T00:37:12.136Z,972.32
2016-06-21T00:38:12.135Z,972.33
2016-06-21T00:39:12.137Z,972.32
2016-06-21T00:40:12.132Z,972.37
2016-06-21T00:41:12.138Z,972.34
2016-06-21T00:42:12.134Z,972.37
2016-06-21T00:43:12.134Z,972.36
2016-06-21T00:44:12.136Z,972.32
2016-06-21T00:45:12.133Z,972.32
2016-06-21T00:46:12.138Z,972.32
2016-06-21T00:47:12.143Z,972.32
2016-06-21T00:48:12.135Z,972.29
2016-06-21T00:49:12.141Z,972.29
2016-06-21T00:50:12.140Z,972.34
2016-06-21T00:51:12.137Z,972.27
2016-06-21T00:52:12.137Z,972.28
2016-06-21T00:53:12.138Z,972.27
2016-06-21T00:54:12.139Z,972.27
2016-06-21T00:55:12.141Z,972.28
2016-06-21T00:56:12.140Z,972.32
2016-06-21T00:57:12.143Z,972.26
2016-06-21T00:58:12.140Z,972.29
2016-06-21T00:59:12.146Z,972.27
2016-06-21T01:00:12.144Z,972.27
2016-06-21T01:01:12.144Z,972.33
2016-06-21T01:02:12.145Z,972.33
2016-06-21T01:03:12.144Z,972.37
2016-06-21T01:04:12.142Z,972.39
2016-06-21T01:05:12.145Z,972.4
2016-06-21T01:06:12.145Z,972.42
2016-06-21T01:07:12.146Z,972.42
2016-06-21T01:08:12.147Z,972.41
2016-06-21T01:09:12.153Z,972.42
2016-06-21T01:10:12.146Z,972.43
2016-06-21T01:11:12.150Z,972.4
2016-06-21T01:12:12.147Z,972.41
2016-06-21T01:13:12.149Z,972.4
2016-06-21T01:14:12.151Z,972.4
2016-06-21T01:15:12.151Z,972.39
2016-06-21T01:16:12.149Z,972.4
2016-06-21T01:17:12.146Z,972.42
2016-06-21T01:18:12.150Z,972.4
2016-06-21T01:19:12.156Z,972.41
2016-06-21T01:20:12.153Z,972.43
2016-06-21T01:21:12.162Z,972.44
2016-06-21T01:22:12.154Z,972.43
2016-06-21T01:23:12.150Z,972.37
2016-06-21T01:24:12.152Z,972.37
2016-06-21T01:25:12.151Z,972.43
2016-06-21T01:26:12.152Z,972.37
2016-06-21T01:27:12.152Z,972.38
2016-06-21T01:28:12.150Z,972.35
2016-06-21T01:29:12.153Z,972.35
2016-06-21T01:30:12.155Z,972.33
2016-06-21T01:31:12.155Z,972.36
2016-06-21T01:32:12.153Z,972.36
2016-06-21T01:33:12.158Z,972.38
2016-06-21T01:34:12.157Z,972.33
2016-06-21T01:35:12.154Z,972.3
2016-06-21T01:36:12.157Z,972.32
2016-06-21T01:37:12.154Z,972.32
2016-06-21T01:38:12.157Z,972.33
2016-06-21T01:39:12.152Z,972.33
2016-06-21T01:40:12.158Z,972.31
2016-06-21T01:41:12.157Z,972.34
2016-06-21T01:42:12.162Z,972.33
2016-06-21T01:43:12.153Z,972.35
2016-06-21T01:44:12.161Z,972.33
2016-06-21T01:45:12.161Z,972.33
2016-06-21T01:46:12.157Z,972.34
2016-06-21T01:47:12.159Z,972.33
2016-06-21T01:48:12.159Z,972.35
2016-06-21T01:49:12.158Z,972.34
2016-06-21T01:50:12.159Z,972.33
2016-06-21T01:51:12.170Z,972.36
2016-06-21T01:52:12.161Z,972.36
2016-06-21T01:53:12.159Z,972.43
2016-06-21T01:54:12.161Z,972.44
2016-06-21T01:55:12.168Z,972.45
2016-06-21T01:56:12.164Z,972.47
2016-06-21T01:57:12.167Z,972.48
2016-06-21T01:58:12.163Z,972.51
2016-06-21T01:59:12.164Z,972.5
2016-06-21T02:00:12.166Z,972.51
2016-06-21T02:01:12.167Z,972.53
2016-06-21T02:02:12.165Z,972.54
2016-06-21T02:03:12.159Z,972.52
2016-06-21T02:04:12.167Z,972.53
2016-06-21T02:05:12.164Z,972.54
2016-06-21T02:06:12.166Z,972.51
2016-06-21T02:07:12.171Z,972.56
2016-06-21T02:08:12.167Z,972.52
2016-06-21T02:10:23.361Z,972.5
2016-06-21T02:11:23.353Z,972.55
2016-06-21T02:12:23.355Z,972.55
2016-06-21T02:13:23.353Z,972.56
2016-06-21T02:14:23.384Z,972.55
2016-06-21T02:15:23.366Z,972.55
2016-06-21T02:16:23.358Z,972.53
2016-06-21T02:17:23.409Z,972.53
2016-06-21T02:18:23.358Z,972.52
2016-06-21T02:19:23.353Z,972.53
2016-06-21T02:20:23.360Z,972.53
2016-06-21T02:21:23.366Z,972.53
2016-06-21T02:22:23.358Z,972.55
2016-06-21T02:23:23.360Z,972.61
2016-06-21T02:24:23.360Z,972.6
2016-06-21T02:25:23.361Z,972.66
2016-06-21T02:26:23.361Z,972.66
2016-06-21T02:27:23.360Z,972.67
2016-06-21T02:28:23.361Z,972.7
2016-06-21T02:29:23.360Z,972.68
2016-06-21T02:30:23.368Z,972.69
2016-06-21T02:31:23.358Z,972.71
2016-06-21T02:32:23.367Z,972.69
2016-06-21T02:33:23.363Z,972.69
2016-06-21T02:34:23.357Z,972.7
2016-06-21T02:35:23.360Z,972.73
2016-06-21T02:36:23.365Z,972.69
2016-06-21T02:37:23.362Z,972.65
2016-06-21T02:38:23.370Z,972.63
2016-06-21T02:39:23.363Z,972.64
2016-06-21T02:40:23.363Z,972.69
2016-06-21T02:41:23.367Z,972.7
2016-06-21T02:42:23.372Z,972.61
2016-06-21T02:43:23.366Z,972.64
2016-06-21T02:44:23.364Z,972.62
2016-06-21T02:45:23.367Z,972.6
2016-06-21T02:46:23.363Z,972.59
2016-06-21T02:47:23.364Z,972.52
2016-06-21T02:48:23.365Z,972.56
2016-06-21T02:49:23.369Z,972.51
2016-06-21T02:50:23.373Z,972.5
2016-06-21T02:51:23.370Z,972.5
2016-06-21T02:52:23.370Z,972.53
2016-06-21T02:53:23.374Z,972.53
2016-06-21T02:54:23.377Z,972.54
2016-06-21T02:55:23.374Z,972.52
2016-06-21T02:56:23.379Z,972.52
2016-06-21T02:57:23.375Z,972.47
2016-06-21T02:58:23.371Z,972.48
2016-06-21T02:59:23.367Z,972.46
2016-06-21T03:00:23.371Z,972.47
2016-06-21T03:01:23.373Z,972.52
2016-06-21T03:02:23.372Z,972.46
2016-06-21T03:03:23.373Z,972.48
2016-06-21T03:04:23.369Z,972.52
2016-06-21T03:05:23.370Z,972.5
2016-06-21T03:06:23.375Z,972.54
2016-06-21T03:07:23.379Z,972.51
2016-06-21T03:08:23.373Z,972.5
2016-06-21T03:09:23.370Z,972.51
2016-06-21T03:10:23.373Z,972.52
2016-06-21T03:11:23.381Z,972.49
2016-06-21T03:12:23.378Z,972.56
2016-06-21T03:13:23.374Z,972.56
2016-06-21T03:14:23.374Z,972.54
2016-06-21T03:15:23.375Z,972.58
2016-06-21T03:16:23.377Z,972.58
2016-06-21T03:17:23.379Z,972.6
2016-06-21T03:18:23.372Z,972.57
2016-06-21T03:19:23.375Z,972.62
2016-06-21T03:20:23.382Z,972.59
2016-06-21T03:21:23.379Z,972.62
2016-06-21T03:22:23.371Z,972.59
2016-06-21T03:23:23.375Z,972.65
2016-06-21T03:24:23.377Z,972.66
2016-06-21T03:25:23.383Z,972.62
2016-06-21T03:26:23.378Z,972.66
2016-06-21T03:27:23.380Z,972.67
2016-06-21T03:28:23.380Z,972.69
2016-06-21T03:29:23.379Z,972.72
2016-06-21T03:30:23.380Z,972.75
2016-06-21T03:31:23.377Z,972.75
2016-06-21T03:32:23.379Z,972.77
2016-06-21T03:33:23.382Z,972.79
2016-06-21T03:34:23.377Z,972.75
2016-06-21T03:35:23.377Z,972.79
2016-06-21T03:36:23.382Z,972.76
2016-06-21T03:37:23.381Z,972.78
2016-06-21T03:38:23.378Z,972.78
2016-06-21T03:39:23.384Z,972.79
2016-06-21T03:40:23.381Z,972.79
2016-06-21T03:41:23.379Z,972.8
2016-06-21T03:42:23.383Z,972.81
2016-06-21T03:43:23.381Z,972.82
2016-06-21T03:44:23.381Z,972.81
2016-06-21T03:45:23.379Z,972.81
2016-06-21T03:46:23.379Z,972.79
2016-06-21T03:47:23.382Z,972.75
2016-06-21T03:48:23.378Z,972.75
2016-06-21T03:49:23.381Z,972.77
2016-06-21T03:50:23.379Z,972.74
2016-06-21T03:51:23.378Z,972.74
2016-06-21T03:52:23.387Z,972.74
2016-06-21T03:53:23.381Z,972.74
2016-06-21T03:54:23.391Z,972.73
2016-06-21T03:55:23.425Z,972.75
2016-06-21T03:56:23.382Z,972.72
2016-06-21T03:57:23.387Z,972.71
2016-06-21T03:58:23.385Z,972.72
2016-06-21T03:59:23.392Z,972.73
2016-06-21T04:00:23.386Z,972.78
2016-06-21T04:01:23.388Z,972.77
2016-06-21T04:02:23.384Z,972.76
2016-06-21T04:03:23.389Z,972.78
2016-06-21T04:04:23.386Z,972.74
2016-06-21T04:05:23.384Z,972.79
2016-06-21T04:06:23.384Z,972.79
2016-06-21T04:07:23.386Z,972.83
2016-06-21T04:08:23.385Z,972.82
2016-06-21T04:09:23.386Z,972.84
2016-06-21T04:10:23.385Z,972.83
2016-06-21T04:11:23.388Z,972.8
2016-06-21T04:12:23.386Z,972.87
2016-06-21T04:13:23.388Z,972.83
2016-06-21T04:14:23.386Z,972.9
2016-06-21T04:15:23.385Z,972.87
2016-06-21T04:16:23.389Z,972.87
2016-06-21T04:17:23.435Z,972.87
2016-06-21T04:18:23.391Z,972.89
2016-06-21T04:19:23.393Z,972.89
2016-06-21T04:20:23.389Z,972.91
2016-06-21T04:21:23.390Z,972.87
2016-06-21T04:22:23.387Z,972.89
2016-06-21T04:23:23.385Z,972.91
2016-06-21T04:24:23.387Z,972.92
2016-06-21T04:25:23.387Z,972.93
2016-06-21T04:26:23.392Z,972.95
2016-06-21T04:27:23.390Z,972.96
2016-06-21T04:28:23.389Z,972.94
2016-06-21T04:29:23.408Z,972.96
2016-06-21T04:30:23.387Z,972.98
2016-06-21T04:31:23.395Z,972.94
2016-06-21T04:32:23.397Z,972.96
2016-06-21T04:33:23.391Z,973.01
2016-06-21T04:34:23.394Z,972.98
2016-06-21T04:35:23.392Z,972.98
2016-06-21T04:36:23.396Z,973
2016-06-21T04:37:23.394Z,972.99
2016-06-21T04:38:23.395Z,973
2016-06-21T04:39:23.391Z,973.01
2016-06-21T04:40:23.395Z,972.99
2016-06-21T04:41:23.394Z,972.97
2016-06-21T04:42:23.392Z,972.99
2016-06-21T04:43:23.394Z,972.96
2016-06-21T04:44:23.394Z,972.99
2016-06-21T04:45:23.396Z,972.96
2016-06-21T04:46:23.391Z,973.01
2016-06-21T04:47:23.393Z,973
2016-06-21T04:48:23.398Z,972.99
2016-06-21T04:49:23.396Z,972.96
2016-06-21T04:50:23.398Z,972.93
2016-06-21T04:51:23.394Z,972.95
2016-06-21T04:52:23.393Z,972.93
2016-06-21T04:53:23.402Z,972.93
2016-06-21T04:54:23.403Z,972.9
2016-06-21T04:55:23.397Z,972.93
2016-06-21T04:56:23.397Z,972.9
2016-06-21T04:57:23.403Z,972.89
2016-06-21T04:58:23.396Z,972.86
2016-06-21T04:59:23.396Z,972.87
2016-06-21T05:00:23.401Z,972.86
2016-06-21T05:01:23.396Z,972.84
2016-06-21T05:02:23.398Z,972.86
2016-06-21T05:03:23.402Z,972.92
2016-06-21T05:04:23.396Z,972.9
2016-06-21T05:05:23.403Z,972.93
2016-06-21T05:06:23.399Z,972.93
2016-06-21T05:07:23.398Z,972.93
2016-06-21T05:08:23.400Z,972.94
2016-06-21T05:09:23.403Z,972.96
2016-06-21T05:10:23.401Z,972.93
2016-06-21T05:11:23.399Z,972.93
2016-06-21T05:12:23.403Z,972.91
2016-06-21T05:13:23.402Z,972.94
2016-06-21T05:14:23.400Z,972.99
2016-06-21T05:15:23.403Z,973.01
2016-06-21T05:16:23.402Z,972.99
2016-06-21T05:17:23.401Z,972.99
2016-06-21T05:18:23.402Z,972.97
2016-06-21T05:19:23.407Z,973.02
2016-06-21T05:20:23.406Z,973.02
2016-06-21T05:21:23.405Z,973.05
2016-06-21T05:22:23.411Z,973.03
2016-06-21T05:23:23.404Z,973.05
2016-06-21T05:24:23.405Z,973.05
2016-06-21T05:25:23.408Z,973.1
2016-06-21T05:26:23.405Z,973.1
2016-06-21T05:27:23.410Z,973.11
2016-06-21T05:28:23.406Z,973.09
2016-06-21T05:29:23.409Z,973.13
2016-06-21T05:30:23.414Z,973.14
2016-06-21T05:31:23.414Z,973.21
2016-06-21T05:32:23.410Z,973.24
2016-06-21T05:33:23.410Z,973.24
2016-06-21T05:34:23.409Z,973.24
2016-06-21T05:35:23.411Z,973.25
2016-06-21T05:36:23.415Z,973.27
2016-06-21T05:37:23.410Z,973.26
2016-06-21T05:38:23.414Z,973.26
2016-06-21T05:39:23.409Z,973.24
2016-06-21T05:40:23.416Z,973.26
2016-06-21T05:41:23.419Z,973.28
2016-06-21T05:42:23.413Z,973.22
2016-06-21T05:43:23.421Z,973.2
2016-06-21T05:44:23.413Z,973.21
2016-06-21T05:45:23.415Z,973.21
2016-06-21T05:46:23.414Z,973.16
2016-06-21T05:47:23.423Z,973.16
2016-06-21T05:48:23.422Z,973.17
2016-06-21T05:49:23.420Z,973.15
2016-06-21T05:50:23.422Z,973.17
2016-06-21T05:51:23.420Z,973.14
2016-06-21T05:52:23.419Z,973.2
2016-06-21T05:53:23.423Z,973.18
2016-06-21T05:54:23.423Z,973.18
2016-06-21T05:55:23.420Z,973.2
2016-06-21T05:56:23.430Z,973.19
2016-06-21T05:57:23.429Z,973.18
2016-06-21T05:58:23.430Z,973.19
2016-06-21T05:59:23.430Z,973.2
2016-06-21T06:00:23.427Z,973.17
2016-06-21T06:01:23.426Z,973.18
2016-06-21T06:02:23.426Z,973.21
2016-06-21T06:03:23.425Z,973.23
2016-06-21T06:04:23.436Z,973.23
2016-06-21T06:05:23.425Z,973.23
2016-06-21T06:06:23.428Z,973.26
2016-06-21T06:07:23.427Z,973.26
2016-06-21T06:08:23.427Z,973.26
2016-06-21T06:09:23.439Z,973.26
2016-06-21T06:10:23.428Z,973.28
2016-06-21T06:11:23.433Z,973.29
2016-06-21T06:12:23.427Z,973.28
2016-06-21T06:13:23.430Z,973.29
2016-06-21T06:14:23.434Z,973.28
2016-06-21T06:15:23.435Z,973.29
2016-06-21T06:16:23.431Z,973.27
2016-06-21T06:17:23.434Z,973.29
2016-06-21T06:18:23.439Z,973.27
2016-06-21T06:19:23.434Z,973.24
2016-06-21T06:20:23.435Z,973.32
2016-06-21T06:21:23.432Z,973.3
2016-06-21T06:22:23.437Z,973.32
2016-06-21T06:23:23.433Z,973.3
2016-06-21T06:24:23.439Z,973.34
2016-06-21T06:25:23.433Z,973.36
2016-06-21T06:26:23.463Z,973.38
2016-06-21T06:27:23.439Z,973.41
2016-06-21T06:28:23.435Z,973.4
2016-06-21T06:29:23.439Z,973.38
2016-06-21T06:30:23.437Z,973.39
2016-06-21T06:31:23.447Z,973.41
2016-06-21T06:32:23.440Z,973.4
2016-06-21T06:33:23.440Z,973.4
2016-06-21T06:34:23.442Z,973.42
2016-06-21T06:35:23.445Z,973.41
2016-06-21T06:36:23.438Z,973.41
2016-06-21T06:37:23.439Z,973.41
2016-06-21T06:38:23.438Z,973.43
2016-06-21T06:39:23.445Z,973.42
2016-06-21T06:40:23.444Z,973.47
2016-06-21T06:41:23.446Z,973.44
2016-06-21T06:42:23.447Z,973.48
2016-06-21T06:43:23.446Z,973.5
2016-06-21T06:44:23.446Z,973.49
2016-06-21T06:45:23.453Z,973.45
2016-06-21T06:46:23.449Z,973.48
2016-06-21T06:47:23.454Z,973.49
2016-06-21T06:48:23.448Z,973.49
2016-06-21T06:49:23.446Z,973.55
2016-06-21T06:50:23.471Z,973.53
2016-06-21T06:51:23.452Z,973.55
2016-06-21T06:52:23.450Z,973.55
2016-06-21T06:53:23.450Z,973.56
2016-06-21T06:54:23.462Z,973.57
2016-06-21T06:55:23.452Z,973.57
2016-06-21T06:56:23.455Z,973.6
2016-06-21T06:57:23.454Z,973.57
2016-06-21T06:58:23.454Z,973.59
2016-06-21T06:59:23.458Z,973.57
2016-06-21T07:00:23.455Z,973.6
2016-06-21T07:01:23.458Z,973.63
2016-06-21T07:02:23.459Z,973.63
2016-06-21T07:03:23.462Z,973.63
2016-06-21T07:04:23.458Z,973.63
2016-06-21T07:05:23.461Z,973.64
2016-06-21T07:06:23.465Z,973.67
2016-06-21T07:07:23.464Z,973.64
2016-06-21T07:08:23.487Z,973.66
2016-06-21T07:09:23.464Z,973.67
2016-06-21T07:10:23.463Z,973.65
2016-06-21T07:11:23.462Z,973.65
2016-06-21T07:12:23.466Z,973.67
2016-06-21T07:13:23.465Z,973.67
2016-06-21T07:14:23.466Z,973.68
2016-06-21T07:15:23.467Z,973.66
2016-06-21T07:16:23.466Z,973.7
2016-06-21T07:17:23.573Z,973.66
2016-06-21T07:18:23.470Z,973.69
2016-06-21T07:19:23.470Z,973.7
2016-06-21T07:20:23.470Z,973.69
2016-06-21T07:21:23.466Z,973.7
2016-06-21T07:22:23.470Z,973.66
2016-06-21T07:23:23.477Z,973.65
2016-06-21T07:24:23.474Z,973.69
2016-06-21T07:25:23.489Z,973.63
2016-06-21T07:26:23.474Z,973.6
2016-06-21T07:27:23.475Z,973.59
2016-06-21T07:28:23.493Z,973.59
2016-06-21T07:29:23.480Z,973.59
2016-06-21T07:30:23.478Z,973.59
2016-06-21T07:31:23.478Z,973.56
2016-06-21T07:32:23.482Z,973.51
2016-06-21T07:33:23.483Z,973.55
2016-06-21T07:34:23.486Z,973.54
2016-06-21T07:35:23.489Z,973.54
2016-06-21T07:36:23.486Z,973.51
2016-06-21T07:37:23.495Z,973.53
2016-06-21T07:38:23.490Z,973.53
2016-06-21T07:39:23.489Z,973.55
2016-06-21T07:40:23.498Z,973.56
2016-06-21T07:41:23.492Z,973.55
2016-06-21T07:42:23.500Z,973.56
2016-06-21T07:43:23.493Z,973.58
2016-06-21T07:44:23.490Z,973.53
2016-06-21T07:45:23.498Z,973.58
2016-06-21T07:46:23.502Z,973.56
2016-06-21T07:47:23.494Z,973.58
2016-06-21T07:48:23.499Z,973.54
2016-06-21T07:49:23.505Z,973.56
2016-06-21T07:50:23.503Z,973.52
2016-06-21T07:51:23.500Z,973.53
2016-06-21T07:52:23.508Z,973.51
2016-06-21T07:53:23.511Z,973.51
2016-06-21T07:54:23.516Z,973.52
2016-06-21T07:55:23.508Z,973.51
2016-06-21T07:56:23.507Z,973.54
2016-06-21T07:57:23.508Z,973.5
2016-06-21T07:58:23.513Z,973.51
2016-06-21T07:59:23.510Z,973.52
2016-06-21T08:00:23.510Z,973.5
2016-06-21T08:01:23.519Z,973.52
2016-06-21T08:02:23.517Z,973.52
2016-06-21T08:03:23.515Z,973.49
2016-06-21T08:04:23.518Z,973.49
2016-06-21T08:05:23.518Z,973.52
2016-06-21T08:06:23.518Z,973.52
2016-06-21T08:07:23.521Z,973.49
2016-06-21T08:08:23.522Z,973.53
2016-06-21T08:09:23.527Z,973.55
2016-06-21T08:10:23.527Z,973.57
2016-06-21T08:11:23.526Z,973.57
2016-06-21T08:12:23.530Z,973.54
2016-06-21T08:13:23.534Z,973.54
2016-06-21T08:14:23.530Z,973.56
2016-06-21T08:15:23.532Z,973.58
2016-06-21T08:16:23.534Z,973.6
2016-06-21T08:17:23.543Z,973.57
2016-06-21T08:18:23.538Z,973.6
2016-06-21T08:19:23.552Z,973.58
2016-06-21T08:20:23.546Z,973.59
2016-06-21T08:21:23.545Z,973.63
2016-06-21T08:22:23.548Z,973.68
2016-06-21T08:23:23.551Z,973.62
2016-06-21T08:24:23.558Z,973.64
2016-06-21T08:25:23.558Z,973.65
2016-06-21T08:26:23.554Z,973.66
2016-06-21T08:27:23.559Z,973.71
2016-06-21T08:28:23.558Z,973.61
2016-06-21T08:29:23.571Z,973.6
2016-06-21T08:30:23.565Z,973.59
2016-06-21T08:31:23.570Z,973.62
2016-06-21T08:32:23.567Z,973.7
2016-06-21T08:33:23.573Z,973.7
2016-06-21T08:34:23.575Z,973.78
2016-06-21T08:35:23.576Z,973.68
2016-06-21T08:36:23.584Z,973.61
2016-06-21T08:37:23.588Z,973.65
2016-06-21T08:38:23.589Z,973.68
2016-06-21T08:39:23.588Z,973.69
2016-06-21T08:40:23.590Z,973.59
2016-06-21T08:41:23.596Z,973.63
2016-06-21T08:42:23.601Z,973.56
2016-06-21T08:43:23.601Z,973.64
2016-06-21T08:44:23.610Z,973.59
2016-06-21T08:45:23.612Z,973.57
2016-06-21T08:46:23.613Z,973.55
2016-06-21T08:47:23.615Z,973.58
2016-06-21T08:48:23.620Z,973.55
2016-06-21T08:49:23.622Z,973.52
2016-06-21T08:50:23.635Z,973.51
2016-06-21T08:51:23.625Z,973.59
2016-06-21T08:52:23.640Z,973.74
2016-06-21T08:53:23.637Z,973.65
2016-06-21T08:54:23.642Z,973.77
2016-06-21T08:55:23.646Z,973.67
2016-06-21T08:56:23.654Z,973.57
2016-06-21T08:57:23.654Z,973.49
2016-06-21T08:58:23.658Z,973.48
2016-06-21T08:59:23.665Z,973.47
2016-06-21T09:00:23.671Z,973.53
2016-06-21T09:01:23.675Z,973.88
2016-06-21T09:02:23.674Z,973.9
2016-06-21T09:03:23.678Z,975.66
2016-06-21T09:04:23.686Z,974.1
2016-06-21T09:05:23.685Z,973.98
2016-06-21T09:06:23.692Z,973.57
2016-06-21T09:07:23.699Z,973.87
2016-06-21T09:08:23.705Z,973.68
2016-06-21T09:09:23.710Z,973.57
2016-06-21T09:10:23.709Z,973.57
2016-06-21T09:11:23.713Z,973.53
2016-06-21T09:12:23.726Z,973.52
2016-06-21T09:13:23.722Z,973.52
2016-06-21T09:14:23.726Z,973.54
2016-06-21T09:15:23.730Z,973.53
2016-06-21T09:16:23.736Z,973.59
2016-06-21T09:17:23.841Z,973.59
2016-06-21T09:18:23.743Z,973.61
2016-06-21T09:19:23.759Z,973.63
2016-06-21T09:20:23.754Z,973.63
2016-06-21T09:21:23.758Z,973.63
2016-06-21T09:22:23.770Z,973.65
2016-06-21T09:23:23.768Z,973.61
2016-06-21T09:24:23.766Z,973.65
2016-06-21T09:25:23.780Z,973.62
2016-06-21T09:26:23.782Z,973.68
2016-06-21T09:27:23.793Z,973.65
2016-06-21T09:28:23.792Z,973.69
2016-06-21T09:29:23.793Z,973.68
2016-06-21T09:30:23.801Z,973.65
2016-06-21T09:31:23.808Z,973.66
2016-06-21T09:32:23.810Z,973.63
2016-06-21T09:33:23.813Z,973.71
2016-06-21T09:34:23.819Z,973.71
2016-06-21T09:35:23.824Z,973.71
2016-06-21T09:36:23.829Z,973.77
2016-06-21T09:37:23.834Z,973.76
2016-06-21T09:38:23.835Z,973.73
2016-06-21T09:39:23.845Z,973.72
2016-06-21T09:40:23.852Z,973.73
2016-06-21T09:41:23.851Z,973.73
2016-06-21T09:42:23.856Z,973.74
2016-06-21T09:43:23.863Z,973.72
2016-06-21T09:44:23.868Z,973.77
2016-06-21T09:45:23.873Z,973.73
2016-06-21T09:46:23.878Z,973.73
2016-06-21T09:47:23.879Z,973.75
2016-06-21T09:48:23.894Z,973.68
2016-06-21T09:49:23.890Z,973.75
2016-06-21T09:50:23.899Z,973.75
2016-06-21T09:51:23.907Z,973.72
2016-06-21T09:52:23.908Z,973.72
2016-06-21T09:53:23.915Z,973.7
2016-06-21T09:54:23.934Z,973.7
2016-06-21T09:55:23.931Z,973.71
2016-06-21T09:56:23.924Z,973.76
2016-06-21T09:57:23.927Z,973.7
2016-06-21T09:58:23.938Z,973.69
2016-06-21T09:59:23.936Z,973.74
2016-06-21T10:00:23.946Z,973.71
2016-06-21T10:01:23.943Z,973.73
2016-06-21T10:02:23.951Z,973.71
2016-06-21T10:03:23.953Z,973.72
2016-06-21T10:04:23.965Z,973.69
2016-06-21T10:05:23.968Z,973.69
2016-06-21T10:06:23.970Z,973.72
2016-06-21T10:07:23.972Z,973.74
2016-06-21T10:08:23.978Z,973.75
2016-06-21T10:09:23.993Z,973.77
2016-06-21T10:10:23.990Z,973.8
2016-06-21T10:11:23.993Z,973.83
2016-06-21T10:12:23.995Z,973.8
2016-06-21T10:13:23.997Z,973.74
2016-06-21T10:14:23.999Z,973.76
2016-06-21T10:15:24.008Z,973.74
2016-06-21T10:16:24.011Z,973.73
2016-06-21T10:17:24.010Z,973.78
2016-06-21T10:18:24.022Z,973.73
2016-06-21T10:19:24.023Z,973.69
2016-06-21T10:20:24.038Z,973.7
2016-06-21T10:21:24.031Z,973.7
2016-06-21T10:22:24.036Z,973.7
2016-06-21T10:23:24.042Z,973.71
2016-06-21T10:24:24.043Z,973.73
2016-06-21T10:25:24.050Z,973.78
2016-06-21T10:26:24.054Z,973.8
2016-06-21T10:27:24.056Z,973.78
2016-06-21T10:28:24.060Z,973.82
2016-06-21T10:29:24.062Z,973.8
2016-06-21T10:30:24.075Z,973.79
2016-06-21T10:31:24.071Z,973.87
2016-06-21T10:32:24.079Z,973.82
2016-06-21T10:33:24.083Z,973.79
2016-06-21T10:34:24.087Z,973.84
2016-06-21T10:35:24.095Z,973.84
2016-06-21T10:36:24.101Z,973.81
2016-06-21T10:37:24.097Z,973.83
2016-06-21T10:38:24.111Z,973.78
2016-06-21T10:39:24.107Z,973.78
2016-06-21T10:40:24.114Z,973.78
2016-06-21T10:41:24.114Z,973.71
2016-06-21T10:42:24.119Z,973.74
2016-06-21T10:43:24.130Z,973.75
2016-06-21T10:44:24.126Z,973.7
2016-06-21T10:45:24.137Z,973.71
2016-06-21T10:46:24.143Z,973.7
2016-06-21T10:47:24.143Z,973.65
2016-06-21T10:48:24.185Z,973.66
2016-06-21T10:49:24.154Z,973.67
2016-06-21T10:50:24.155Z,973.65
2016-06-21T10:51:24.158Z,973.6
2016-06-21T10:52:24.162Z,973.56
2016-06-21T10:53:24.170Z,973.58
2016-06-21T10:54:24.172Z,973.58
2016-06-21T10:55:24.175Z,973.54
2016-06-21T10:56:24.183Z,973.56
2016-06-21T10:57:24.187Z,973.55
2016-06-21T10:58:24.190Z,973.54
2016-06-21T10:59:24.195Z,973.53
2016-06-21T11:00:24.200Z,973.48
2016-06-21T11:01:24.206Z,973.43
2016-06-21T11:02:24.210Z,973.51
2016-06-21T11:03:24.210Z,973.51
2016-06-21T11:04:24.219Z,973.5
2016-06-21T11:05:24.219Z,973.53
2016-06-21T11:06:24.223Z,973.52
2016-06-21T11:07:24.233Z,973.52
2016-06-21T11:08:24.233Z,973.56
2016-06-21T11:09:24.237Z,973.58
2016-06-21T11:10:24.239Z,973.59
2016-06-21T11:11:24.245Z,973.57
2016-06-21T11:12:24.246Z,973.55
2016-06-21T11:13:24.252Z,973.57
2016-06-21T11:14:24.262Z,973.61
2016-06-21T11:15:24.260Z,973.6
2016-06-21T11:16:24.271Z,973.58
2016-06-21T11:17:24.376Z,973.62
2016-06-21T11:18:24.280Z,973.64
2016-06-21T11:19:24.283Z,973.61
2016-06-21T11:20:24.290Z,973.6
2016-06-21T11:21:24.295Z,973.6
2016-06-21T11:22:24.293Z,973.57
2016-06-21T11:23:24.300Z,973.56
2016-06-21T11:24:24.303Z,973.59
2016-06-21T11:25:24.306Z,973.56
2016-06-21T11:26:24.308Z,973.6
2016-06-21T11:27:24.314Z,973.56
2016-06-21T11:28:24.344Z,973.55
2016-06-21T11:29:24.324Z,973.57
2016-06-21T11:30:24.331Z,973.57
2016-06-21T11:31:24.329Z,973.54
2016-06-21T11:32:24.338Z,973.55
2016-06-21T11:33:24.500Z,973.55
2016-06-21T11:34:24.350Z,973.56
2016-06-21T11:35:24.350Z,973.59
2016-06-21T11:36:24.351Z,973.55
2016-06-21T11:37:24.356Z,973.58
2016-06-21T11:38:24.363Z,973.55
2016-06-21T11:39:24.367Z,973.57
2016-06-21T11:40:24.367Z,973.54
2016-06-21T11:41:24.367Z,973.55
2016-06-21T11:42:24.374Z,973.57
2016-06-21T11:43:24.376Z,973.58
2016-06-21T11:44:24.380Z,973.61
2016-06-21T11:45:24.385Z,973.61
2016-06-21T11:46:24.395Z,973.6
2016-06-21T11:47:24.391Z,973.63
2016-06-21T11:48:24.400Z,973.58
2016-06-21T11:49:24.405Z,973.58
2016-06-21T11:50:24.407Z,973.64
2016-06-21T11:51:24.415Z,973.63
2016-06-21T11:52:24.415Z,973.63
2016-06-21T11:53:24.415Z,973.67
2016-06-21T11:54:24.422Z,973.67
2016-06-21T11:55:24.423Z,973.68
2016-06-21T11:56:24.435Z,973.68
2016-06-21T11:57:24.444Z,973.72
2016-06-21T11:58:24.439Z,973.67
2016-06-21T11:59:24.440Z,973.68
2016-06-21T12:00:24.442Z,973.64
2016-06-21T12:01:24.450Z,973.64
2016-06-21T12:02:24.472Z,973.66
2016-06-21T12:03:24.456Z,973.64
2016-06-21T12:04:24.459Z,973.65
2016-06-21T12:05:24.463Z,973.64
2016-06-21T12:06:24.470Z,973.66
2016-06-21T12:07:24.477Z,973.66
2016-06-21T12:08:24.481Z,973.62
2016-06-21T12:09:24.487Z,973.66
2016-06-21T12:10:24.493Z,973.61
2016-06-21T12:11:24.501Z,973.63
2016-06-21T12:12:24.503Z,973.65
2016-06-21T12:13:24.499Z,973.65
2016-06-21T12:14:24.509Z,973.63
2016-06-21T12:15:24.515Z,973.54
2016-06-21T12:16:24.521Z,973.58
2016-06-21T12:17:24.519Z,973.53
2016-06-21T12:18:24.526Z,973.54
2016-06-21T12:19:24.528Z,973.52
2016-06-21T12:20:24.532Z,973.52
2016-06-21T12:21:24.533Z,973.47
2016-06-21T12:22:24.537Z,973.49
2016-06-21T12:23:24.544Z,973.46
2016-06-21T12:24:24.543Z,973.49
2016-06-21T12:25:24.550Z,973.5
2016-06-21T12:26:24.559Z,973.46
2016-06-21T12:27:24.564Z,973.44
2016-06-21T12:28:24.584Z,973.45
2016-06-21T12:29:24.571Z,973.42
2016-06-21T12:30:24.579Z,973.42
2016-06-21T12:31:24.582Z,973.43
2016-06-21T12:32:24.587Z,973.45